Invermere, Canada
Current Conditions -  °F | °C
As of 1:00 AM on Sunday 26 Oct 2014 (Local Time) from CYXC Reporting Station
Light Rain Light Rain  
Wind Chill: 39°   Ceiling: 4000
Heat Index: 45°   Visibility: 8mi
Dew Point: 43°   Wind: 10mph
Humidity: 93%   Direction: 150°SSE
Pressure: 29.53"   Gusts: NA
Location:  50.51°N, 116.03°W
Report Text: CYXC 260700Z 15009KT 8SM -RA BKN040 OVC120 07/06 A2953 RMK SC5AC3 SLP010 DENSITY ALT 3300FT
Loading
Personal Weather Stations






























Interactive Weather Map
Tropical Storm Tracking
New forecast layout! Learn more

10-Day Weather Forecast

Advertisements
Track Severe Weather on mobile